createdAt,value
2023-01-28T00:30:58.513Z,1017.59
2023-01-28T00:31:38.899Z,1017.63
2023-01-28T00:32:19.355Z,1017.63
2023-01-28T00:32:59.985Z,1017.59
2023-01-28T00:33:40.538Z,1017.57
2023-01-28T00:34:21.039Z,1017.61
2023-01-28T00:35:42.085Z,1017.58
2023-01-28T00:36:22.573Z,1017.57
2023-01-28T00:37:03.063Z,1017.58
2023-01-28T00:37:43.557Z,1017.6
2023-01-28T00:38:24.076Z,1017.59
2023-01-28T00:39:04.584Z,1017.61
2023-01-28T00:39:45.074Z,1017.6
2023-01-28T00:40:25.468Z,1017.62
2023-01-28T00:41:05.936Z,1017.58
2023-01-28T00:41:46.408Z,1017.56
2023-01-28T00:42:26.907Z,1017.58
2023-01-28T00:43:07.387Z,1017.57
2023-01-28T00:43:47.856Z,1017.57
2023-01-28T00:44:28.373Z,1017.58
2023-01-28T00:45:50.369Z,1017.54
2023-01-28T00:46:29.827Z,1017.59
2023-01-28T00:47:10.315Z,1017.63
2023-01-28T00:47:50.801Z,1017.64
2023-01-28T00:48:31.253Z,1017.64
2023-01-28T00:49:11.721Z,1017.64
2023-01-28T00:49:52.251Z,1017.67
2023-01-28T00:50:32.758Z,1017.63
2023-01-28T00:51:13.259Z,1017.6
2023-01-28T00:51:53.742Z,1017.6
2023-01-28T00:52:34.216Z,1017.65
2023-01-28T00:53:14.708Z,1017.64
2023-01-28T00:53:55.248Z,1017.65
2023-01-28T00:54:35.707Z,1017.64
2023-01-28T00:55:16.613Z,1017.66
2023-01-28T00:55:56.658Z,1017.71
2023-01-28T00:56:37.154Z,1017.67
2023-01-28T00:57:17.606Z,1017.69
2023-01-28T00:57:58.084Z,1017.65
2023-01-28T00:58:38.570Z,1017.64
2023-01-28T00:59:19.090Z,1017.68
2023-01-28T00:59:59.621Z,1017.65
2023-01-28T01:00:40.065Z,1017.68
2023-01-28T01:01:20.598Z,1017.69
2023-01-28T01:02:01.116Z,1017.7
2023-01-28T01:03:22.088Z,1017.69
2023-01-28T01:04:02.895Z,1017.7
2023-01-28T01:04:43.179Z,1017.67
2023-01-28T01:05:23.596Z,1017.69
2023-01-28T01:06:04.072Z,1017.66
2023-01-28T01:06:44.585Z,1017.66
2023-01-28T01:07:25.059Z,1017.67
2023-01-28T01:08:05.565Z,1017.66
2023-01-28T01:08:46.059Z,1017.65
2023-01-28T01:09:26.554Z,1017.64
2023-01-28T01:10:07.075Z,1017.65
2023-01-28T01:10:47.607Z,1017.55
2023-01-28T01:11:28.112Z,1017.61
2023-01-28T01:12:08.611Z,1017.58
2023-01-28T01:12:49.054Z,1017.53
2023-01-28T01:13:29.535Z,1017.56
2023-01-28T01:14:10.016Z,1017.53
2023-01-28T01:14:51.285Z,1017.55
2023-01-28T01:15:31.029Z,1017.54
2023-01-28T01:16:11.515Z,1017.54
2023-01-28T01:16:51.963Z,1017.53
2023-01-28T01:17:32.460Z,1017.63
2023-01-28T01:18:12.942Z,1017.59
2023-01-28T01:18:53.450Z,1017.63
2023-01-28T01:19:33.918Z,1017.65
2023-01-28T01:20:14.415Z,1017.63
2023-01-28T01:23:13.116Z,1017.67
2023-01-28T01:23:53.536Z,1017.66
2023-01-28T01:24:34.086Z,1017.72
2023-01-28T01:25:14.762Z,1017.73
2023-01-28T01:25:54.938Z,1017.7
2023-01-28T01:26:35.467Z,1017.73
2023-01-28T01:27:16.898Z,1017.73
2023-01-28T01:27:57.390Z,1017.71
2023-01-28T01:28:37.879Z,1017.74
2023-01-28T01:29:18.381Z,1017.72
2023-01-28T01:29:58.880Z,1017.75
2023-01-28T01:30:39.350Z,1017.74
2023-01-28T01:31:19.828Z,1017.71
2023-01-28T01:32:00.403Z,1017.73
2023-01-28T01:32:40.809Z,1017.75
2023-01-28T01:33:21.253Z,1017.76
2023-01-28T01:34:01.726Z,1017.73
2023-01-28T01:34:42.218Z,1017.72
2023-01-28T01:35:22.704Z,1017.73
2023-01-28T01:36:03.208Z,1017.7
2023-01-28T01:36:43.690Z,1017.73
2023-01-28T01:37:24.172Z,1017.74
2023-01-28T01:38:04.644Z,1017.72
2023-01-28T01:38:45.174Z,1017.75
2023-01-28T01:39:25.644Z,1017.75
2023-01-28T01:40:06.135Z,1017.77
2023-01-28T01:40:46.592Z,1017.71
2023-01-28T01:41:27.084Z,1017.72
2023-01-28T01:42:07.608Z,1017.77
2023-01-28T01:42:48.079Z,1017.78
2023-01-28T01:43:28.564Z,1017.75
2023-01-28T01:44:09.063Z,1017.78
2023-01-28T01:44:49.573Z,1017.74
2023-01-28T01:45:30.054Z,1017.76
2023-01-28T01:46:10.706Z,1017.76
2023-01-28T01:46:51.091Z,1017.8
2023-01-28T01:47:31.595Z,1017.79
2023-01-28T01:48:12.111Z,1017.79
2023-01-28T01:48:52.591Z,1017.8
2023-01-28T01:49:33.101Z,1017.69
2023-01-28T01:50:13.610Z,1017.76
2023-01-28T01:50:54.091Z,1017.71
2023-01-28T01:51:34.593Z,1017.66
2023-01-28T01:52:15.133Z,1017.65
2023-01-28T01:52:55.642Z,1017.63
2023-01-28T01:53:36.178Z,1017.68
2023-01-28T01:54:16.631Z,1017.68
2023-01-28T01:54:57.109Z,1017.66
2023-01-28T01:56:18.109Z,1017.71
2023-01-28T01:56:58.599Z,1017.7
2023-01-28T01:57:39.116Z,1017.71
2023-01-28T02:00:37.682Z,1017.74
2023-01-28T02:01:18.269Z,1017.76
2023-01-28T02:01:58.815Z,1017.75
2023-01-28T02:02:39.307Z,1017.73
2023-01-28T02:03:19.909Z,1017.76
2023-01-28T02:04:00.313Z,1017.8
2023-01-28T02:04:40.819Z,1017.79
2023-01-28T02:05:21.312Z,1017.8
2023-01-28T02:06:01.818Z,1017.79
2023-01-28T02:06:42.273Z,1017.87
2023-01-28T02:07:22.882Z,1017.83
2023-01-28T02:08:03.301Z,1017.85
2023-01-28T02:08:43.743Z,1017.81
2023-01-28T02:09:24.237Z,1017.82
2023-01-28T02:10:04.813Z,1017.81
2023-01-28T02:10:45.212Z,1017.8
2023-01-28T02:11:25.678Z,1017.78
2023-01-28T02:12:06.201Z,1017.79
2023-01-28T02:12:46.653Z,1017.77
2023-01-28T02:14:07.701Z,1017.81
2023-01-28T02:14:48.152Z,1017.83
2023-01-28T02:15:28.666Z,1017.8
2023-01-28T02:16:09.145Z,1017.78
2023-01-28T02:16:49.643Z,1017.77
2023-01-28T02:17:30.120Z,1017.77
2023-01-28T02:18:10.638Z,1017.77
2023-01-28T02:18:51.127Z,1017.76
2023-01-28T02:19:31.671Z,1017.82
2023-01-28T02:20:12.140Z,1017.81
2023-01-28T02:20:53.250Z,1017.82
2023-01-28T02:21:33.148Z,1017.8
2023-01-28T02:22:13.675Z,1017.81
2023-01-28T02:22:54.161Z,1017.77
2023-01-28T02:23:34.699Z,1017.76
2023-01-28T02:24:15.161Z,1017.76
2023-01-28T02:24:55.647Z,1017.77
2023-01-28T02:25:36.130Z,1017.79
2023-01-28T02:26:16.594Z,1017.79
2023-01-28T02:26:57.080Z,1017.78
2023-01-28T02:27:37.656Z,1017.8
2023-01-28T02:28:18.093Z,1017.77
2023-01-28T02:28:58.642Z,1017.78
2023-01-28T02:29:39.086Z,1017.79
2023-01-28T02:30:19.564Z,1017.76
2023-01-28T02:31:00.228Z,1017.78
2023-01-28T02:31:40.731Z,1017.77
2023-01-28T02:32:21.105Z,1017.78
2023-01-28T02:33:01.618Z,1017.78
2023-01-28T02:33:42.158Z,1017.8
2023-01-28T02:34:22.650Z,1017.82
2023-01-28T02:35:03.112Z,1017.82
2023-01-28T02:35:43.574Z,1017.82
2023-01-28T02:36:24.073Z,1017.85
2023-01-28T02:37:04.563Z,1017.85
2023-01-28T02:37:45.070Z,1017.84
2023-01-28T02:38:25.582Z,1017.84
2023-01-28T02:39:06.050Z,1017.87
2023-01-28T02:39:46.550Z,1017.87
2023-01-28T02:40:27.039Z,1017.88
2023-01-28T02:41:07.521Z,1017.86
2023-01-28T02:41:48.023Z,1017.87
2023-01-28T02:42:28.547Z,1017.84
2023-01-28T02:43:09.068Z,1017.85
2023-01-28T02:43:49.558Z,1017.9
2023-01-28T02:44:30.045Z,1017.86
2023-01-28T02:45:10.541Z,1017.89
2023-01-28T02:45:51.075Z,1017.87
2023-01-28T02:46:31.556Z,1017.91
2023-01-28T02:47:12.060Z,1017.91
2023-01-28T02:47:52.541Z,1017.96
2023-01-28T02:48:33.037Z,1017.91
2023-01-28T02:49:13.537Z,1017.91
2023-01-28T02:49:54.053Z,1017.98
2023-01-28T02:50:34.529Z,1017.93
2023-01-28T02:51:14.995Z,1017.97
2023-01-28T02:51:55.497Z,1017.95
2023-01-28T02:52:35.965Z,1017.98
2023-01-28T02:53:16.488Z,1017.98
2023-01-28T02:53:56.979Z,1017.98
2023-01-28T02:54:37.507Z,1018.02
2023-01-28T02:55:58.527Z,1018.03
2023-01-28T02:56:39.026Z,1018.06
2023-01-28T02:57:19.610Z,1018.06
2023-01-28T02:58:00.049Z,1018.07
2023-01-28T02:58:40.526Z,1018.09
2023-01-28T02:59:21.007Z,1018.06
2023-01-28T03:00:01.536Z,1018.09
2023-01-28T03:00:41.964Z,1018.11
2023-01-28T03:01:22.492Z,1018.15
2023-01-28T03:02:02.975Z,1018.1
2023-01-28T03:02:43.484Z,1018.12
2023-01-28T03:03:23.929Z,1018.11
2023-01-28T03:04:04.419Z,1018.12
2023-01-28T03:04:44.902Z,1018.13
2023-01-28T03:05:25.442Z,1018.11
2023-01-28T03:06:05.932Z,1018.14
2023-01-28T03:06:46.473Z,1018.12
2023-01-28T03:07:27.030Z,1018.16
2023-01-28T03:08:07.464Z,1018.17
2023-01-28T03:08:47.993Z,1018.19
2023-01-28T03:09:28.474Z,1018.14
2023-01-28T03:10:08.954Z,1018.15
2023-01-28T03:10:49.456Z,1018.14
2023-01-28T03:11:29.938Z,1018.17
2023-01-28T03:12:10.512Z,1018.14
2023-01-28T03:12:50.936Z,1018.17
2023-01-28T03:13:31.445Z,1018.18
2023-01-28T03:14:52.448Z,1018.17
2023-01-28T03:15:33.107Z,1018.25
2023-01-28T03:16:13.425Z,1018.23
2023-01-28T03:16:53.894Z,1018.2
2023-01-28T03:17:34.384Z,1018.2
2023-01-28T03:18:14.890Z,1018.23
2023-01-28T03:18:55.396Z,1018.2
2023-01-28T03:19:35.875Z,1018.24
2023-01-28T03:20:16.371Z,1018.2
2023-01-28T03:20:56.930Z,1018.25
2023-01-28T03:21:37.373Z,1018.25
2023-01-28T03:22:17.870Z,1018.29
2023-01-28T03:22:58.371Z,1018.27
2023-01-28T03:23:38.865Z,1018.29
2023-01-28T03:24:19.451Z,1018.22
2023-01-28T03:24:59.875Z,1018.24
2023-01-28T03:25:40.358Z,1018.22
2023-01-28T03:26:20.872Z,1018.23
2023-01-28T03:27:01.367Z,1018.27
2023-01-28T03:27:41.879Z,1018.22
2023-01-28T03:31:11.845Z,1018.21
2023-01-28T03:31:52.359Z,1018.19
2023-01-28T03:32:32.796Z,1018.16
2023-01-28T03:33:13.363Z,1018.16
2023-01-28T03:33:53.778Z,1018.17
2023-01-28T03:34:34.297Z,1018.14
2023-01-28T03:35:15.134Z,1018.2
2023-01-28T03:35:55.336Z,1018.2
2023-01-28T03:36:35.868Z,1018.19
2023-01-28T03:37:16.313Z,1018.22
2023-01-28T03:37:56.734Z,1018.23
2023-01-28T03:38:37.250Z,1018.21
2023-01-28T03:39:17.730Z,1018.21
2023-01-28T03:39:59.105Z,1018.2
2023-01-28T03:40:39.636Z,1018.19
2023-01-28T03:41:20.111Z,1018.2
2023-01-28T03:42:01.292Z,1018.17
2023-01-28T03:42:41.176Z,1018.22
2023-01-28T03:43:21.661Z,1018.2
2023-01-28T03:44:42.666Z,1018.22
2023-01-28T03:45:23.185Z,1018.21
2023-01-28T03:46:03.681Z,1018.23
2023-01-28T03:46:44.141Z,1018.26
2023-01-28T03:47:24.668Z,1018.26
2023-01-28T03:48:05.143Z,1018.28
2023-01-28T03:48:45.660Z,1018.23
2023-01-28T03:49:26.092Z,1018.25
2023-01-28T03:50:06.590Z,1018.27
2023-01-28T03:50:47.102Z,1018.32
2023-01-28T03:52:08.088Z,1018.31
2023-01-28T03:52:48.658Z,1018.31
2023-01-28T03:53:29.088Z,1018.27
2023-01-28T03:54:09.516Z,1018.31
2023-01-28T03:54:50.110Z,1018.35
2023-01-28T03:55:30.552Z,1018.3
2023-01-28T03:56:11.075Z,1018.32
2023-01-28T03:56:51.549Z,1018.31
2023-01-28T03:57:32.073Z,1018.32
2023-01-28T03:58:12.628Z,1018.33
2023-01-28T03:58:53.194Z,1018.35
2023-01-28T03:59:33.669Z,1018.34
2023-01-28T04:00:14.172Z,1018.37
2023-01-28T04:00:54.730Z,1018.35
2023-01-28T04:01:35.269Z,1018.33
2023-01-28T04:02:15.778Z,1018.34
2023-01-28T04:02:56.264Z,1018.34
2023-01-28T04:03:36.779Z,1018.4
2023-01-28T04:04:17.354Z,1018.35
2023-01-28T04:04:57.836Z,1018.36
2023-01-28T04:05:38.333Z,1018.37
2023-01-28T04:06:18.829Z,1018.38
2023-01-28T04:06:59.316Z,1018.34
2023-01-28T04:07:39.885Z,1018.37
2023-01-28T04:08:20.292Z,1018.36
2023-01-28T04:09:41.361Z,1018.33
2023-01-28T04:10:21.813Z,1018.36
2023-01-28T04:11:02.271Z,1018.4
2023-01-28T04:11:42.794Z,1018.43
2023-01-28T04:12:23.299Z,1018.4
2023-01-28T04:13:03.825Z,1018.4
2023-01-28T04:13:44.286Z,1018.41
2023-01-28T04:14:24.789Z,1018.44
2023-01-28T04:15:05.316Z,1018.42
2023-01-28T04:15:45.893Z,1018.43
2023-01-28T04:16:26.328Z,1018.46
2023-01-28T04:17:06.839Z,1018.44
2023-01-28T04:17:47.292Z,1018.45
2023-01-28T04:18:27.750Z,1018.44
2023-01-28T04:19:08.268Z,1018.39
2023-01-28T04:19:48.751Z,1018.44
2023-01-28T04:20:29.251Z,1018.44
2023-01-28T04:21:09.764Z,1018.45
2023-01-28T04:21:50.209Z,1018.43
2023-01-28T04:22:30.737Z,1018.43
2023-01-28T04:23:11.236Z,1018.47
2023-01-28T04:23:51.700Z,1018.44
2023-01-28T04:24:32.209Z,1018.44
2023-01-28T04:25:13.222Z,1018.44
2023-01-28T04:25:53.216Z,1018.46
2023-01-28T04:26:33.687Z,1018.46
2023-01-28T04:27:14.171Z,1018.51
2023-01-28T04:27:54.645Z,1018.51
2023-01-28T04:28:35.164Z,1018.52
2023-01-28T04:32:04.085Z,1018.53
2023-01-28T04:32:44.637Z,1018.52
2023-01-28T04:33:25.119Z,1018.52
2023-01-28T04:34:05.590Z,1018.53
2023-01-28T04:34:46.103Z,1018.55
2023-01-28T04:35:26.606Z,1018.53
2023-01-28T04:36:07.156Z,1018.57
2023-01-28T04:36:47.588Z,1018.58
2023-01-28T04:37:28.148Z,1018.55
2023-01-28T04:38:08.653Z,1018.55
2023-01-28T04:38:49.194Z,1018.51
2023-01-28T04:39:29.626Z,1018.51
2023-01-28T04:40:10.126Z,1018.5
2023-01-28T04:40:50.636Z,1018.53
2023-01-28T04:41:31.201Z,1018.54
2023-01-28T04:42:11.629Z,1018.52
2023-01-28T04:42:52.101Z,1018.52
2023-01-28T04:43:32.587Z,1018.53
2023-01-28T04:44:13.088Z,1018.6
2023-01-28T04:44:53.559Z,1018.58
2023-01-28T04:45:34.063Z,1018.57
2023-01-28T04:46:14.558Z,1018.59
2023-01-28T04:46:55.054Z,1018.6
2023-01-28T04:47:35.505Z,1018.6
2023-01-28T04:48:15.946Z,1018.62
2023-01-28T04:48:56.451Z,1018.63
2023-01-28T04:49:36.954Z,1018.65
2023-01-28T04:50:17.421Z,1018.66
2023-01-28T04:50:57.893Z,1018.67
2023-01-28T04:51:38.399Z,1018.69
2023-01-28T04:52:18.897Z,1018.7
2023-01-28T04:52:59.382Z,1018.68
2023-01-28T04:53:39.864Z,1018.69
2023-01-28T04:54:20.401Z,1018.69
2023-01-28T04:55:01.689Z,1018.65
2023-01-28T04:55:42.178Z,1018.66
2023-01-28T04:56:22.713Z,1018.62
2023-01-28T04:57:03.275Z,1018.61
2023-01-28T04:57:43.754Z,1018.63
2023-01-28T04:58:24.284Z,1018.67
2023-01-28T04:59:04.770Z,1018.66
2023-01-28T04:59:45.255Z,1018.65
2023-01-28T05:00:25.726Z,1018.67
2023-01-28T05:01:06.274Z,1018.67
2023-01-28T05:01:46.832Z,1018.65
2023-01-28T05:02:27.300Z,1018.68
2023-01-28T05:03:07.760Z,1018.69
2023-01-28T05:04:28.743Z,1018.64
2023-01-28T05:05:09.193Z,1018.66
2023-01-28T05:05:49.696Z,1018.64
2023-01-28T05:06:30.186Z,1018.67
2023-01-28T05:07:10.669Z,1018.67
2023-01-28T05:07:51.161Z,1018.63
2023-01-28T05:08:31.652Z,1018.65
2023-01-28T05:09:12.156Z,1018.64
2023-01-28T05:09:52.667Z,1018.67
2023-01-28T05:10:33.151Z,1018.66
2023-01-28T05:11:13.636Z,1018.62
2023-01-28T05:11:54.114Z,1018.6
2023-01-28T05:12:34.644Z,1018.6
2023-01-28T05:13:15.087Z,1018.64
2023-01-28T05:13:55.562Z,1018.66
2023-01-28T05:14:36.045Z,1018.62
2023-01-28T05:15:16.904Z,1018.61
2023-01-28T05:15:57.062Z,1018.59
2023-01-28T05:16:37.574Z,1018.61
2023-01-28T05:17:18.121Z,1018.62
2023-01-28T05:17:58.577Z,1018.59
2023-01-28T05:18:39.075Z,1018.59
2023-01-28T05:19:19.622Z,1018.6
2023-01-28T05:20:00.156Z,1018.63
2023-01-28T05:20:40.720Z,1018.63
2023-01-28T05:22:01.639Z,1018.66
2023-01-28T05:22:42.188Z,1018.67
2023-01-28T05:23:22.637Z,1018.66
2023-01-28T05:24:03.206Z,1018.64
2023-01-28T05:24:43.665Z,1018.64
2023-01-28T05:25:24.176Z,1018.64
2023-01-28T05:26:04.609Z,1018.63
2023-01-28T05:26:45.074Z,1018.67
2023-01-28T05:27:25.591Z,1018.65
2023-01-28T05:28:06.078Z,1018.61
2023-01-28T05:28:46.542Z,1018.66
2023-01-28T05:29:27.049Z,1018.64
2023-01-28T05:32:40.721Z,1018.63
2023-01-28T05:33:21.245Z,1018.63
2023-01-28T05:34:01.684Z,1018.63
2023-01-28T05:34:42.113Z,1018.66
2023-01-28T05:35:22.665Z,1018.72
2023-01-28T05:36:03.101Z,1018.7
2023-01-28T05:36:43.642Z,1018.73
2023-01-28T05:37:24.115Z,1018.69
2023-01-28T05:38:04.576Z,1018.68
2023-01-28T05:38:45.070Z,1018.76
2023-01-28T05:39:25.561Z,1018.72
2023-01-28T05:40:06.145Z,1018.69
2023-01-28T05:40:46.540Z,1018.68
2023-01-28T05:41:27.036Z,1018.67
2023-01-28T05:42:07.521Z,1018.71
2023-01-28T05:42:48.039Z,1018.68
2023-01-28T05:43:28.508Z,1018.69
2023-01-28T05:44:09.004Z,1018.68
2023-01-28T05:44:49.517Z,1018.67
2023-01-28T05:45:30.059Z,1018.67
2023-01-28T05:46:10.465Z,1018.66
2023-01-28T05:46:50.976Z,1018.66
2023-01-28T05:47:31.463Z,1018.65
2023-01-28T05:48:11.977Z,1018.66
2023-01-28T05:48:52.443Z,1018.63
2023-01-28T05:49:32.940Z,1018.63
2023-01-28T05:50:14.235Z,1018.63
2023-01-28T05:50:54.407Z,1018.65
2023-01-28T05:52:15.470Z,1018.67
2023-01-28T05:52:55.954Z,1018.64
2023-01-28T06:32:39.912Z,1018.98
2023-01-28T06:33:20.806Z,1018.96
2023-01-28T06:34:01.229Z,1019.01
2023-01-28T06:34:41.702Z,1018.98
2023-01-28T06:35:22.138Z,1018.95
2023-01-28T06:36:02.604Z,1018.96
2023-01-28T06:36:43.064Z,1018.99
2023-01-28T06:37:25.970Z,1019.03
2023-01-28T06:38:04.019Z,1018.99
2023-01-28T06:38:44.528Z,1018.98
2023-01-28T06:39:25.011Z,1018.99
2023-01-28T06:40:05.484Z,1018.98
2023-01-28T06:40:45.961Z,1019.01
2023-01-28T06:41:26.488Z,1018.99
2023-01-28T06:42:06.942Z,1018.96
2023-01-28T06:42:47.434Z,1019
2023-01-28T06:43:27.911Z,1019.01
2023-01-28T06:44:08.410Z,1018.97
2023-01-28T06:44:48.941Z,1018.98
2023-01-28T06:45:29.412Z,1018.97
2023-01-28T06:46:09.980Z,1018.99
2023-01-28T06:46:50.403Z,1018.99
2023-01-28T06:47:30.895Z,1018.99
2023-01-28T06:48:11.461Z,1019
2023-01-28T06:48:51.928Z,1019.01
2023-01-28T06:49:32.400Z,1018.98
2023-01-28T06:50:13.351Z,1019
2023-01-28T06:50:53.373Z,1018.98
2023-01-28T06:51:33.898Z,1018.97
2023-01-28T06:52:14.371Z,1019
2023-01-28T12:45:32.075Z,1020.23
2023-01-28T12:46:12.449Z,1020.22
2023-01-28T12:46:52.899Z,1020.22
2023-01-28T12:47:33.464Z,1020.22
2023-01-28T12:48:14.186Z,1020.23
2023-01-28T12:48:54.776Z,1020.19
2023-01-28T12:49:35.222Z,1020.22
2023-01-28T12:50:16.176Z,1020.21
2023-01-28T12:50:56.634Z,1020.19
2023-01-28T12:51:37.304Z,1020.2
2023-01-28T12:52:17.957Z,1020.22
2023-01-28T12:52:58.430Z,1020.21
2023-01-28T12:53:38.959Z,1020.17
2023-01-28T12:54:20.344Z,1020.16
2023-01-28T12:55:00.736Z,1020.09
2023-01-28T12:55:41.197Z,1020.07
2023-01-28T12:56:21.753Z,1020.11
2023-01-28T12:57:02.205Z,1020.06
2023-01-28T12:57:42.683Z,1020.08
2023-01-28T12:58:23.211Z,1020.07
2023-01-28T12:59:03.689Z,1020.07
2023-01-28T12:59:44.195Z,1020.08
2023-01-28T13:00:24.702Z,1020.06
2023-01-28T13:01:05.211Z,1020.04
2023-01-28T13:01:45.778Z,1020.07
2023-01-28T13:03:06.738Z,1020.07
2023-01-28T13:03:47.170Z,1020.1
2023-01-28T13:04:27.677Z,1020.09
2023-01-28T13:05:08.202Z,1020.09
2023-01-28T13:05:48.636Z,1020.09
2023-01-28T13:06:29.115Z,1020.03
2023-01-28T13:07:09.731Z,1020.03
2023-01-28T13:07:50.216Z,1020
2023-01-28T13:08:30.714Z,1019.97
2023-01-28T13:09:11.195Z,1019.99
2023-01-28T13:09:51.724Z,1019.95
2023-01-28T13:10:32.292Z,1019.96
2023-01-28T13:11:12.707Z,1019.94
2023-01-28T13:11:53.177Z,1019.89
2023-01-28T13:12:33.684Z,1019.94
2023-01-28T13:13:14.186Z,1019.9
2023-01-28T13:13:54.664Z,1019.89
2023-01-28T13:14:35.151Z,1019.83
2023-01-28T13:15:16.016Z,1019.83
2023-01-28T13:15:56.144Z,1019.84
2023-01-28T13:16:38.275Z,1019.82
2023-01-28T13:17:17.220Z,1019.8
2023-01-28T13:17:57.729Z,1019.81
2023-01-28T13:18:38.240Z,1019.82
2023-01-28T13:19:18.749Z,1019.77
2023-01-28T13:21:16.360Z,1019.72
2023-01-28T13:21:56.831Z,1019.74
2023-01-28T13:22:37.286Z,1019.68
2023-01-28T13:23:18.324Z,1019.73
2023-01-28T13:23:58.812Z,1019.72
2023-01-28T13:24:39.251Z,1019.77
2023-01-28T13:25:19.702Z,1019.76
2023-01-28T13:26:40.667Z,1019.71
2023-01-28T13:27:21.129Z,1019.78
2023-01-28T13:28:01.659Z,1019.72
2023-01-28T13:28:42.176Z,1019.72
2023-01-28T13:29:22.646Z,1019.66
2023-01-28T13:30:03.137Z,1019.64
2023-01-28T13:30:43.674Z,1019.59
2023-01-28T13:31:24.204Z,1019.56
2023-01-28T13:32:04.711Z,1019.54
2023-01-28T13:32:45.205Z,1019.47
2023-01-28T13:33:25.657Z,1019.46
2023-01-28T13:34:06.197Z,1019.46
2023-01-28T13:34:46.698Z,1019.46
2023-01-28T13:35:27.219Z,1019.49
2023-01-28T13:36:07.694Z,1019.43
2023-01-28T13:36:48.189Z,1019.42
2023-01-28T13:37:28.717Z,1019.43
2023-01-28T13:38:09.273Z,1019.42
2023-01-28T13:38:49.808Z,1019.38
2023-01-28T13:39:30.512Z,1019.33
2023-01-28T13:40:11.819Z,1019.34
2023-01-28T13:40:52.373Z,1019.35
2023-01-28T13:41:32.869Z,1019.3
2023-01-28T13:42:13.354Z,1019.23
2023-01-28T13:42:54.327Z,1019.25
2023-01-28T13:43:34.448Z,1019.17
2023-01-28T13:44:14.939Z,1019.14
2023-01-28T13:44:55.335Z,1019.17
2023-01-28T13:45:35.869Z,1019.16
2023-01-28T13:46:16.317Z,1019.12
2023-01-28T13:46:56.804Z,1019.18
2023-01-28T13:47:37.332Z,1019.17
2023-01-28T13:48:17.783Z,1019.19
2023-01-28T13:48:58.305Z,1019.2
2023-01-28T13:49:38.754Z,1019.31
2023-01-28T13:50:19.238Z,1019.37
2023-01-28T13:50:59.717Z,1019.43
2023-01-28T13:51:40.234Z,1019.5
2023-01-28T13:52:20.933Z,1019.56
2023-01-28T13:53:01.347Z,1019.59
2023-01-28T13:53:41.849Z,1019.58
2023-01-28T13:54:22.384Z,1019.58
2023-01-28T13:55:02.864Z,1019.65
2023-01-28T13:55:45.542Z,1019.61
2023-01-28T13:56:23.862Z,1019.66
2023-01-28T13:57:04.396Z,1019.69
2023-01-28T13:57:44.886Z,1019.64
2023-01-28T13:58:25.398Z,1019.65
2023-01-28T13:59:05.866Z,1019.6
2023-01-28T13:59:46.377Z,1019.58
2023-01-28T14:00:27.213Z,1019.55
2023-01-28T14:01:07.373Z,1019.58
2023-01-28T14:01:47.869Z,1019.54
2023-01-28T14:02:28.390Z,1019.55
2023-01-28T14:03:08.883Z,1019.58
2023-01-28T14:03:49.411Z,1019.6
2023-01-28T14:04:29.897Z,1019.62
2023-01-28T14:05:10.369Z,1019.64
2023-01-28T14:05:50.848Z,1019.63
2023-01-28T14:06:31.361Z,1019.69
2023-01-28T14:07:11.854Z,1019.72
2023-01-28T14:07:52.333Z,1019.7
2023-01-28T14:08:32.842Z,1019.68
2023-01-28T14:09:13.369Z,1019.69
2023-01-28T14:09:53.885Z,1019.67
2023-01-28T14:10:34.444Z,1019.69
2023-01-28T14:11:14.832Z,1019.71
2023-01-28T14:11:55.334Z,1019.77
2023-01-28T14:13:16.338Z,1019.8
2023-01-28T14:13:56.876Z,1019.79
2023-01-28T14:14:37.313Z,1019.75
2023-01-28T14:15:17.832Z,1019.74
2023-01-28T14:15:58.335Z,1019.67
2023-01-28T14:16:38.903Z,1019.68
2023-01-28T14:17:19.367Z,1019.72
2023-01-28T14:17:59.842Z,1019.75
2023-01-28T14:18:40.413Z,1019.81
2023-01-28T14:19:20.877Z,1019.84
2023-01-28T14:20:01.364Z,1019.84
2023-01-28T14:20:41.835Z,1019.86
2023-01-28T14:21:22.352Z,1019.84
2023-01-28T14:22:02.826Z,1019.88
2023-01-28T14:22:43.347Z,1019.92
2023-01-28T14:23:23.867Z,1019.96
2023-01-28T14:24:04.422Z,1020
2023-01-28T14:24:44.841Z,1020.01
2023-01-28T14:25:25.354Z,1020.01
2023-01-28T14:26:05.866Z,1020.03
2023-01-28T14:26:46.364Z,1019.99
2023-01-28T14:27:26.911Z,1019.98
2023-01-28T14:28:07.357Z,1019.95
2023-01-28T14:28:47.855Z,1019.97
2023-01-28T14:29:28.361Z,1019.99
2023-01-28T14:30:08.855Z,1019.98
2023-01-28T14:30:49.473Z,1020.02
2023-01-28T14:31:29.916Z,1020.05
2023-01-28T14:32:11.587Z,1020.03
2023-01-28T14:32:50.877Z,1020.02
2023-01-28T14:33:31.352Z,1020
2023-01-28T14:34:12.425Z,1020.02
2023-01-28T14:34:52.887Z,1020.02
2023-01-28T14:35:33.363Z,1020
2023-01-28T14:36:13.866Z,1020.01
2023-01-28T14:36:54.343Z,1019.97
2023-01-28T14:37:34.864Z,1019.95
2023-01-28T14:38:15.387Z,1019.92
2023-01-28T14:38:55.889Z,1019.93
2023-01-28T14:39:36.356Z,1019.92
2023-01-28T14:40:17.158Z,1019.94
2023-01-28T14:40:57.308Z,1019.93
2023-01-28T14:41:37.795Z,1019.96
2023-01-28T14:42:18.288Z,1019.93
2023-01-28T14:42:58.790Z,1019.98
2023-01-28T14:43:39.290Z,1019.96
2023-01-28T14:44:19.807Z,1019.94
2023-01-28T14:45:00.286Z,1019.94
2023-01-28T14:45:40.830Z,1019.92
2023-01-28T14:46:21.324Z,1019.91
2023-01-28T14:47:01.873Z,1019.89
2023-01-28T14:49:20.287Z,1019.94
2023-01-28T14:50:00.801Z,1019.94
2023-01-28T14:50:41.324Z,1019.96
2023-01-28T14:51:21.820Z,1019.95
2023-01-28T14:52:02.562Z,1020.01
2023-01-28T14:52:43.029Z,1020.01
2023-01-28T14:53:23.555Z,1019.93
2023-01-28T14:54:04.022Z,1019.9
2023-01-28T14:54:44.571Z,1019.86
2023-01-28T14:55:25.097Z,1019.84
2023-01-28T14:56:05.580Z,1019.8
2023-01-28T14:56:46.132Z,1019.78
2023-01-28T14:57:26.628Z,1019.78
2023-01-28T14:58:07.190Z,1019.77
2023-01-28T14:58:47.687Z,1019.78
2023-01-28T14:59:28.155Z,1019.76
2023-01-28T15:00:08.675Z,1019.78
2023-01-28T15:00:49.127Z,1019.73
2023-01-28T15:01:29.647Z,1019.71
2023-01-28T15:02:10.131Z,1019.7
2023-01-28T15:02:50.724Z,1019.71
2023-01-28T15:04:11.998Z,1019.71
2023-01-28T15:04:52.658Z,1019.77
2023-01-28T15:05:33.363Z,1019.73
2023-01-28T15:06:54.456Z,1019.74
2023-01-28T15:07:34.958Z,1019.72
2023-01-28T15:08:15.474Z,1019.72
2023-01-28T15:08:55.955Z,1019.73
2023-01-28T15:09:37.006Z,1019.76
2023-01-28T15:10:17.740Z,1019.79
2023-01-28T15:10:57.874Z,1019.78
2023-01-28T15:11:38.391Z,1019.81
2023-01-28T15:12:18.943Z,1019.82
2023-01-28T15:12:59.554Z,1019.78
2023-01-28T15:13:40.170Z,1019.74
2023-01-28T15:14:20.710Z,1019.74
2023-01-28T15:15:02.557Z,1019.69
2023-01-28T15:15:43.598Z,1019.64
2023-01-28T15:17:04.499Z,1019.64
2023-01-28T15:17:45.063Z,1019.63
2023-01-28T15:18:25.565Z,1019.65
2023-01-28T15:19:06.132Z,1019.6
2023-01-28T15:19:47.197Z,1019.59
2023-01-28T15:20:27.727Z,1019.58
2023-01-28T15:21:08.189Z,1019.58
2023-01-28T15:21:48.834Z,1019.6
2023-01-28T15:22:29.280Z,1019.55
2023-01-28T15:23:09.747Z,1019.56
2023-01-28T15:23:50.265Z,1019.55
2023-01-28T15:24:30.801Z,1019.56
2023-01-28T15:25:11.334Z,1019.55
2023-01-28T15:25:51.882Z,1019.52
2023-01-28T15:26:32.288Z,1019.58
2023-01-28T15:27:12.802Z,1019.52
2023-01-28T15:27:53.298Z,1019.54
2023-01-28T15:28:33.909Z,1019.53
2023-01-28T15:29:54.827Z,1019.57
2023-01-28T15:30:35.415Z,1019.57
2023-01-28T15:31:15.957Z,1019.62
2023-01-28T15:31:56.472Z,1019.57
2023-01-28T15:32:37.037Z,1019.6
2023-01-28T15:33:17.554Z,1019.6
2023-01-28T15:33:58.138Z,1019.58
2023-01-28T15:34:38.627Z,1019.59
2023-01-28T15:35:19.150Z,1019.54
2023-01-28T15:35:59.682Z,1019.56
2023-01-28T15:36:40.139Z,1019.5
2023-01-28T15:37:20.633Z,1019.52
2023-01-28T15:38:01.129Z,1019.52
2023-01-28T15:38:41.603Z,1019.55
2023-01-28T15:39:22.122Z,1019.54
2023-01-28T15:40:02.624Z,1019.56
2023-01-28T15:40:43.193Z,1019.51
2023-01-28T15:41:23.716Z,1019.54
2023-01-28T15:42:44.758Z,1019.5
2023-01-28T15:43:25.299Z,1019.48
2023-01-28T15:44:05.776Z,1019.47